sensor_id;sensor_type;location;lat;lon;timestamp;P1;durP1;ratioP1;P2;durP2;ratioP2
75700;SDS011;64321;48.796;44.740;2023-12-14T00:01:22;33.20;;;2.47;;
75700;SDS011;64321;48.796;44.740;2023-12-14T00:06:24;56.70;;;4.43;;
75700;SDS011;64321;48.796;44.740;2023-12-14T00:11:27;42.47;;;4.45;;
75700;SDS011;64321;48.796;44.740;2023-12-14T00:16:30;33.58;;;4.35;;
75700;SDS011;64321;48.796;44.740;2023-12-14T00:21:32;47.72;;;4.57;;
75700;SDS011;64321;48.796;44.740;2023-12-14T00:26:35;23.02;;;4.28;;
75700;SDS011;64321;48.796;44.740;2023-12-14T00:31:37;58.00;;;4.43;;
75700;SDS011;64321;48.796;44.740;2023-12-14T00:36:40;39.92;;;4.85;;
75700;SDS011;64321;48.796;44.740;2023-12-14T00:41:43;54.10;;;6.60;;
75700;SDS011;64321;48.796;44.740;2023-12-14T00:46:45;16.90;;;2.53;;
75700;SDS011;64321;48.796;44.740;2023-12-14T00:51:48;33.67;;;4.20;;
75700;SDS011;64321;48.796;44.740;2023-12-14T00:56:51;56.08;;;3.97;;
75700;SDS011;64321;48.796;44.740;2023-12-14T01:01:53;23.88;;;2.63;;
75700;SDS011;64321;48.796;44.740;2023-12-14T01:06:56;40.80;;;3.22;;
75700;SDS011;64321;48.796;44.740;2023-12-14T01:11:59;46.30;;;3.38;;
75700;SDS011;64321;48.796;44.740;2023-12-14T01:17:01;25.40;;;4.03;;
75700;SDS011;64321;48.796;44.740;2023-12-14T01:27:07;42.80;;;4.90;;
75700;SDS011;64321;48.796;44.740;2023-12-14T01:32:12;35.95;;;4.75;;
75700;SDS011;64321;48.796;44.740;2023-12-14T01:37:15;32.85;;;2.10;;
75700;SDS011;64321;48.796;44.740;2023-12-14T01:42:17;22.85;;;2.70;;
75700;SDS011;64321;48.796;44.740;2023-12-14T01:47:20;39.90;;;3.80;;
75700;SDS011;64321;48.796;44.740;2023-12-14T01:52:22;15.95;;;3.42;;
75700;SDS011;64321;48.796;44.740;2023-12-14T01:57:25;29.92;;;4.93;;
75700;SDS011;64321;48.796;44.740;2023-12-14T02:02:28;19.92;;;2.13;;
75700;SDS011;64321;48.796;44.740;2023-12-14T02:07:30;5.68;;;1.70;;
75700;SDS011;64321;48.796;44.740;2023-12-14T02:12:33;29.50;;;2.67;;
75700;SDS011;64321;48.796;44.740;2023-12-14T02:17:36;25.95;;;4.20;;
75700;SDS011;64321;48.796;44.740;2023-12-14T02:22:48;22.33;;;2.72;;
75700;SDS011;64321;48.796;44.740;2023-12-14T02:27:52;48.28;;;5.40;;
75700;SDS011;64321;48.796;44.740;2023-12-14T02:32:55;35.80;;;2.75;;
75700;SDS011;64321;48.796;44.740;2023-12-14T02:37:57;47.55;;;3.10;;
75700;SDS011;64321;48.796;44.740;2023-12-14T02:43:00;27.38;;;2.45;;
75700;SDS011;64321;48.796;44.740;2023-12-14T02:48:03;22.70;;;2.72;;
75700;SDS011;64321;48.796;44.740;2023-12-14T02:53:06;36.95;;;3.22;;
75700;SDS011;64321;48.796;44.740;2023-12-14T02:58:09;17.95;;;2.33;;
75700;SDS011;64321;48.796;44.740;2023-12-14T03:03:11;29.48;;;3.35;;
75700;SDS011;64321;48.796;44.740;2023-12-14T03:08:14;16.10;;;4.65;;
75700;SDS011;64321;48.796;44.740;2023-12-14T03:13:17;20.65;;;2.53;;
75700;SDS011;64321;48.796;44.740;2023-12-14T03:18:19;9.68;;;2.35;;
75700;SDS011;64321;48.796;44.740;2023-12-14T03:23:22;14.00;;;1.92;;
75700;SDS011;64321;48.796;44.740;2023-12-14T03:28:24;19.85;;;1.52;;
75700;SDS011;64321;48.796;44.740;2023-12-14T03:33:27;15.23;;;2.20;;
75700;SDS011;64321;48.796;44.740;2023-12-14T03:38:30;12.77;;;2.30;;
75700;SDS011;64321;48.796;44.740;2023-12-14T03:43:33;22.63;;;2.28;;
75700;SDS011;64321;48.796;44.740;2023-12-14T03:48:36;28.15;;;2.53;;
75700;SDS011;64321;48.796;44.740;2023-12-14T03:53:38;9.27;;;2.00;;
75700;SDS011;64321;48.796;44.740;2023-12-14T03:58:42;20.17;;;3.80;;
75700;SDS011;64321;48.796;44.740;2023-12-14T04:03:44;17.20;;;2.15;;
75700;SDS011;64321;48.796;44.740;2023-12-14T04:13:50;9.77;;;2.53;;
75700;SDS011;64321;48.796;44.740;2023-12-14T04:18:55;30.48;;;4.60;;
75700;SDS011;64321;48.796;44.740;2023-12-14T04:23:58;24.40;;;3.97;;
75700;SDS011;64321;48.796;44.740;2023-12-14T04:29:01;28.20;;;2.72;;
75700;SDS011;64321;48.796;44.740;2023-12-14T04:34:03;35.83;;;6.07;;
75700;SDS011;64321;48.796;44.740;2023-12-14T04:39:06;18.75;;;2.17;;
75700;SDS011;64321;48.796;44.740;2023-12-14T04:44:09;8.27;;;2.38;;
75700;SDS011;64321;48.796;44.740;2023-12-14T04:49:12;31.65;;;4.35;;
75700;SDS011;64321;48.796;44.740;2023-12-14T04:54:15;16.45;;;2.03;;
75700;SDS011;64321;48.796;44.740;2023-12-14T04:59:18;23.05;;;4.00;;
75700;SDS011;64321;48.796;44.740;2023-12-14T05:04:20;28.92;;;2.30;;
75700;SDS011;64321;48.796;44.740;2023-12-14T05:09:23;22.27;;;3.08;;
75700;SDS011;64321;48.796;44.740;2023-12-14T05:14:25;23.15;;;3.05;;
75700;SDS011;64321;48.796;44.740;2023-12-14T05:19:32;9.45;;;1.23;;
75700;SDS011;64321;48.796;44.740;2023-12-14T05:24:38;16.00;;;2.60;;
75700;SDS011;64321;48.796;44.740;2023-12-14T05:29:41;34.03;;;3.08;;
75700;SDS011;64321;48.796;44.740;2023-12-14T05:34:43;27.13;;;3.28;;
75700;SDS011;64321;48.796;44.740;2023-12-14T05:39:46;16.20;;;3.28;;
75700;SDS011;64321;48.796;44.740;2023-12-14T05:44:49;20.45;;;3.25;;
75700;SDS011;64321;48.796;44.740;2023-12-14T05:49:51;43.15;;;4.32;;
75700;SDS011;64321;48.796;44.740;2023-12-14T05:54:54;38.28;;;3.90;;
75700;SDS011;64321;48.796;44.740;2023-12-14T06:04:59;32.38;;;4.97;;
75700;SDS011;64321;48.796;44.740;2023-12-14T06:10:04;29.45;;;3.15;;
75700;SDS011;64321;48.796;44.740;2023-12-14T06:15:07;43.72;;;3.92;;
75700;SDS011;64321;48.796;44.740;2023-12-14T06:20:10;30.23;;;3.63;;
75700;SDS011;64321;48.796;44.740;2023-12-14T06:25:13;27.77;;;4.30;;
75700;SDS011;64321;48.796;44.740;2023-12-14T06:30:16;19.63;;;2.72;;
75700;SDS011;64321;48.796;44.740;2023-12-14T06:35:19;37.13;;;4.68;;
75700;SDS011;64321;48.796;44.740;2023-12-14T06:40:22;33.88;;;3.45;;
75700;SDS011;64321;48.796;44.740;2023-12-14T06:45:25;31.13;;;4.07;;
75700;SDS011;64321;48.796;44.740;2023-12-14T06:50:27;34.50;;;3.35;;
75700;SDS011;64321;48.796;44.740;2023-12-14T06:55:30;45.67;;;5.55;;
75700;SDS011;64321;48.796;44.740;2023-12-14T07:00:32;48.35;;;5.88;;
75700;SDS011;64321;48.796;44.740;2023-12-14T07:05:35;43.90;;;5.57;;
75700;SDS011;64321;48.796;44.740;2023-12-14T07:10:40;49.28;;;6.50;;
75700;SDS011;64321;48.796;44.740;2023-12-14T07:15:44;36.05;;;4.30;;
75700;SDS011;64321;48.796;44.740;2023-12-14T07:20:46;37.90;;;6.28;;
75700;SDS011;64321;48.796;44.740;2023-12-14T07:30:51;31.55;;;3.25;;
75700;SDS011;64321;48.796;44.740;2023-12-14T07:35:54;41.45;;;5.20;;
75700;SDS011;64321;48.796;44.740;2023-12-14T07:45:59;46.20;;;5.72;;
75700;SDS011;64321;48.796;44.740;2023-12-14T07:51:02;46.47;;;6.75;;
75700;SDS011;64321;48.796;44.740;2023-12-14T07:56:05;52.80;;;6.72;;
75700;SDS011;64321;48.796;44.740;2023-12-14T08:01:08;55.70;;;6.35;;
75700;SDS011;64321;48.796;44.740;2023-12-14T08:06:11;66.32;;;5.95;;
75700;SDS011;64321;48.796;44.740;2023-12-14T08:11:17;61.47;;;5.45;;
75700;SDS011;64321;48.796;44.740;2023-12-14T08:16:20;50.20;;;5.65;;
75700;SDS011;64321;48.796;44.740;2023-12-14T08:21:23;52.50;;;7.47;;
75700;SDS011;64321;48.796;44.740;2023-12-14T08:26:26;62.78;;;5.38;;
75700;SDS011;64321;48.796;44.740;2023-12-14T08:31:28;45.80;;;6.60;;
75700;SDS011;64321;48.796;44.740;2023-12-14T08:36:31;62.08;;;7.85;;
75700;SDS011;64321;48.796;44.740;2023-12-14T08:46:42;42.28;;;4.20;;
75700;SDS011;64321;48.796;44.740;2023-12-14T08:51:47;55.88;;;7.60;;
75700;SDS011;64321;48.796;44.740;2023-12-14T09:01:52;45.13;;;5.10;;
75700;SDS011;64321;48.796;44.740;2023-12-14T09:06:55;61.25;;;5.30;;
75700;SDS011;64321;48.796;44.740;2023-12-14T09:17:00;52.90;;;8.05;;
75700;SDS011;64321;48.796;44.740;2023-12-14T09:27:05;72.40;;;8.20;;
75700;SDS011;64321;48.796;44.740;2023-12-14T09:32:08;46.53;;;5.93;;
75700;SDS011;64321;48.796;44.740;2023-12-14T09:37:11;56.90;;;6.40;;
75700;SDS011;64321;48.796;44.740;2023-12-14T09:42:18;72.10;;;6.07;;
75700;SDS011;64321;48.796;44.740;2023-12-14T09:47:25;59.75;;;5.10;;
75700;SDS011;64321;48.796;44.740;2023-12-14T09:52:28;83.07;;;6.30;;
75700;SDS011;64321;48.796;44.740;2023-12-14T09:57:31;61.28;;;6.03;;
75700;SDS011;64321;48.796;44.740;2023-12-14T10:02:34;59.17;;;6.60;;
75700;SDS011;64321;48.796;44.740;2023-12-14T10:07:43;75.82;;;6.03;;
75700;SDS011;64321;48.796;44.740;2023-12-14T10:12:50;46.78;;;6.95;;
75700;SDS011;64321;48.796;44.740;2023-12-14T10:17:56;87.65;;;8.02;;
75700;SDS011;64321;48.796;44.740;2023-12-14T10:23:00;55.10;;;5.35;;
75700;SDS011;64321;48.796;44.740;2023-12-14T10:28:02;42.25;;;6.97;;
75700;SDS011;64321;48.796;44.740;2023-12-14T10:33:05;72.15;;;6.63;;
75700;SDS011;64321;48.796;44.740;2023-12-14T10:38:11;60.75;;;4.90;;
75700;SDS011;64321;48.796;44.740;2023-12-14T10:43:14;56.30;;;8.27;;
75700;SDS011;64321;48.796;44.740;2023-12-14T10:48:38;42.83;;;4.63;;
75700;SDS011;64321;48.796;44.740;2023-12-14T10:53:46;67.68;;;5.70;;
75700;SDS011;64321;48.796;44.740;2023-12-14T10:58:52;76.45;;;7.28;;
75700;SDS011;64321;48.796;44.740;2023-12-14T11:03:59;57.80;;;6.97;;
75700;SDS011;64321;48.796;44.740;2023-12-14T11:09:06;54.33;;;6.03;;
75700;SDS011;64321;48.796;44.740;2023-12-14T11:14:12;37.85;;;4.82;;
75700;SDS011;64321;48.796;44.740;2023-12-14T11:24:24;36.05;;;4.78;;
75700;SDS011;64321;48.796;44.740;2023-12-14T11:29:28;71.03;;;8.10;;
75700;SDS011;64321;48.796;44.740;2023-12-14T11:34:31;63.40;;;5.72;;
75700;SDS011;64321;48.796;44.740;2023-12-14T11:39:34;70.60;;;7.78;;
75700;SDS011;64321;48.796;44.740;2023-12-14T11:44:40;55.97;;;6.63;;
75700;SDS011;64321;48.796;44.740;2023-12-14T11:49:43;58.40;;;6.07;;
75700;SDS011;64321;48.796;44.740;2023-12-14T11:54:46;51.47;;;5.22;;
75700;SDS011;64321;48.796;44.740;2023-12-14T11:59:50;52.25;;;6.15;;
75700;SDS011;64321;48.796;44.740;2023-12-14T12:04:54;65.80;;;5.22;;
75700;SDS011;64321;48.796;44.740;2023-12-14T12:14:59;49.03;;;5.25;;
75700;SDS011;64321;48.796;44.740;2023-12-14T12:20:01;43.97;;;5.97;;
75700;SDS011;64321;48.796;44.740;2023-12-14T12:25:04;49.53;;;4.55;;
75700;SDS011;64321;48.796;44.740;2023-12-14T12:30:16;49.88;;;6.18;;
75700;SDS011;64321;48.796;44.740;2023-12-14T12:35:19;29.08;;;3.83;;
75700;SDS011;64321;48.796;44.740;2023-12-14T12:40:22;41.03;;;4.95;;
75700;SDS011;64321;48.796;44.740;2023-12-14T12:45:28;41.60;;;5.63;;
75700;SDS011;64321;48.796;44.740;2023-12-14T12:50:31;43.30;;;4.70;;
75700;SDS011;64321;48.796;44.740;2023-12-14T12:55:34;66.50;;;4.80;;
75700;SDS011;64321;48.796;44.740;2023-12-14T13:00:37;35.60;;;4.70;;
75700;SDS011;64321;48.796;44.740;2023-12-14T13:05:40;52.55;;;7.20;;
75700;SDS011;64321;48.796;44.740;2023-12-14T13:15:46;19.75;;;4.75;;
75700;SDS011;64321;48.796;44.740;2023-12-14T13:20:48;21.48;;;2.55;;
75700;SDS011;64321;48.796;44.740;2023-12-14T13:25:51;25.95;;;3.83;;
75700;SDS011;64321;48.796;44.740;2023-12-14T13:30:54;59.33;;;4.32;;
75700;SDS011;64321;48.796;44.740;2023-12-14T13:35:57;25.33;;;3.22;;
75700;SDS011;64321;48.796;44.740;2023-12-14T13:40:59;30.60;;;4.85;;
75700;SDS011;64321;48.796;44.740;2023-12-14T13:46:02;29.05;;;4.80;;
75700;SDS011;64321;48.796;44.740;2023-12-14T13:51:20;36.45;;;5.75;;
75700;SDS011;64321;48.796;44.740;2023-12-14T13:56:23;32.80;;;3.88;;
75700;SDS011;64321;48.796;44.740;2023-12-14T14:01:25;22.35;;;3.50;;
75700;SDS011;64321;48.796;44.740;2023-12-14T14:06:28;56.22;;;3.70;;
75700;SDS011;64321;48.796;44.740;2023-12-14T14:11:31;30.60;;;3.88;;
75700;SDS011;64321;48.796;44.740;2023-12-14T14:21:36;44.28;;;7.75;;
75700;SDS011;64321;48.796;44.740;2023-12-14T14:26:38;47.45;;;2.75;;
75700;SDS011;64321;48.796;44.740;2023-12-14T14:31:41;33.05;;;3.25;;
75700;SDS011;64321;48.796;44.740;2023-12-14T14:36:44;37.60;;;5.03;;
75700;SDS011;64321;48.796;44.740;2023-12-14T14:41:47;43.67;;;3.80;;
75700;SDS011;64321;48.796;44.740;2023-12-14T14:46:50;37.45;;;4.68;;
75700;SDS011;64321;48.796;44.740;2023-12-14T14:51:54;25.27;;;2.97;;
75700;SDS011;64321;48.796;44.740;2023-12-14T14:56:56;27.45;;;2.80;;
75700;SDS011;64321;48.796;44.740;2023-12-14T15:01:59;30.17;;;3.70;;
75700;SDS011;64321;48.796;44.740;2023-12-14T15:07:04;38.90;;;4.47;;
75700;SDS011;64321;48.796;44.740;2023-12-14T15:12:07;31.42;;;3.75;;
75700;SDS011;64321;48.796;44.740;2023-12-14T15:22:12;40.45;;;3.25;;
75700;SDS011;64321;48.796;44.740;2023-12-14T15:27:16;32.60;;;5.38;;
75700;SDS011;64321;48.796;44.740;2023-12-14T15:32:18;25.52;;;3.53;;
75700;SDS011;64321;48.796;44.740;2023-12-14T15:37:22;19.98;;;3.15;;
75700;SDS011;64321;48.796;44.740;2023-12-14T15:42:24;41.88;;;3.92;;
75700;SDS011;64321;48.796;44.740;2023-12-14T15:47:27;32.13;;;2.92;;
75700;SDS011;64321;48.796;44.740;2023-12-14T15:52:30;45.25;;;3.28;;
75700;SDS011;64321;48.796;44.740;2023-12-14T15:57:33;18.67;;;2.17;;
75700;SDS011;64321;48.796;44.740;2023-12-14T16:02:35;16.45;;;1.38;;
75700;SDS011;64321;48.796;44.740;2023-12-14T16:07:39;25.17;;;2.95;;
75700;SDS011;64321;48.796;44.740;2023-12-14T16:12:41;60.15;;;2.55;;
75700;SDS011;64321;48.796;44.740;2023-12-14T16:17:44;10.23;;;1.58;;
75700;SDS011;64321;48.796;44.740;2023-12-14T16:22:47;15.68;;;2.60;;
75700;SDS011;64321;48.796;44.740;2023-12-14T16:27:50;12.82;;;1.60;;
75700;SDS011;64321;48.796;44.740;2023-12-14T16:32:52;30.48;;;2.78;;
75700;SDS011;64321;48.796;44.740;2023-12-14T16:37:57;23.17;;;2.08;;
75700;SDS011;64321;48.796;44.740;2023-12-14T16:43:00;28.92;;;2.38;;
75700;SDS011;64321;48.796;44.740;2023-12-14T16:48:02;7.82;;;2.38;;
75700;SDS011;64321;48.796;44.740;2023-12-14T16:53:06;10.85;;;1.60;;
75700;SDS011;64321;48.796;44.740;2023-12-14T16:58:12;18.20;;;2.38;;
75700;SDS011;64321;48.796;44.740;2023-12-14T17:03:15;24.83;;;2.08;;
75700;SDS011;64321;48.796;44.740;2023-12-14T17:08:18;10.80;;;1.80;;
75700;SDS011;64321;48.796;44.740;2023-12-14T17:13:22;31.92;;;1.92;;
75700;SDS011;64321;48.796;44.740;2023-12-14T17:18:25;18.10;;;1.63;;
75700;SDS011;64321;48.796;44.740;2023-12-14T17:23:28;19.30;;;2.53;;
75700;SDS011;64321;48.796;44.740;2023-12-14T17:28:31;15.57;;;1.40;;
75700;SDS011;64321;48.796;44.740;2023-12-14T17:33:33;18.55;;;2.95;;
75700;SDS011;64321;48.796;44.740;2023-12-14T17:38:36;32.63;;;3.10;;
75700;SDS011;64321;48.796;44.740;2023-12-14T17:43:39;14.43;;;1.80;;
75700;SDS011;64321;48.796;44.740;2023-12-14T17:53:45;7.38;;;1.75;;
75700;SDS011;64321;48.796;44.740;2023-12-14T17:58:47;10.68;;;1.70;;
75700;SDS011;64321;48.796;44.740;2023-12-14T18:03:50;16.38;;;1.60;;
75700;SDS011;64321;48.796;44.740;2023-12-14T18:08:53;6.13;;;0.63;;
75700;SDS011;64321;48.796;44.740;2023-12-14T18:13:55;11.63;;;3.33;;
75700;SDS011;64321;48.796;44.740;2023-12-14T18:18:58;26.00;;;1.85;;
75700;SDS011;64321;48.796;44.740;2023-12-14T18:24:01;32.33;;;3.13;;
75700;SDS011;64321;48.796;44.740;2023-12-14T18:29:05;12.98;;;1.33;;
75700;SDS011;64321;48.796;44.740;2023-12-14T18:34:07;13.40;;;2.85;;
75700;SDS011;64321;48.796;44.740;2023-12-14T18:39:10;14.85;;;2.03;;
75700;SDS011;64321;48.796;44.740;2023-12-14T18:44:13;17.30;;;2.83;;
75700;SDS011;64321;48.796;44.740;2023-12-14T18:49:16;5.65;;;1.70;;
75700;SDS011;64321;48.796;44.740;2023-12-14T18:54:18;30.10;;;2.40;;
75700;SDS011;64321;48.796;44.740;2023-12-14T18:59:21;28.98;;;2.55;;
75700;SDS011;64321;48.796;44.740;2023-12-14T19:04:24;7.25;;;1.60;;
75700;SDS011;64321;48.796;44.740;2023-12-14T19:09:26;35.50;;;3.22;;
75700;SDS011;64321;48.796;44.740;2023-12-14T19:14:30;9.82;;;2.70;;
75700;SDS011;64321;48.796;44.740;2023-12-14T19:19:33;11.80;;;3.97;;
75700;SDS011;64321;48.796;44.740;2023-12-14T19:24:36;19.45;;;3.95;;
75700;SDS011;64321;48.796;44.740;2023-12-14T19:29:39;34.53;;;2.40;;
75700;SDS011;64321;48.796;44.740;2023-12-14T19:34:42;32.17;;;2.13;;
75700;SDS011;64321;48.796;44.740;2023-12-14T19:39:44;17.65;;;2.22;;
75700;SDS011;64321;48.796;44.740;2023-12-14T19:44:47;33.67;;;2.78;;
75700;SDS011;64321;48.796;44.740;2023-12-14T19:49:49;33.03;;;2.17;;
75700;SDS011;64321;48.796;44.740;2023-12-14T19:54:54;31.77;;;5.28;;
75700;SDS011;64321;48.796;44.740;2023-12-14T19:59:57;32.92;;;10.20;;
75700;SDS011;64321;48.796;44.740;2023-12-14T20:05:00;28.98;;;2.53;;
75700;SDS011;64321;48.796;44.740;2023-12-14T20:10:04;25.00;;;3.67;;
75700;SDS011;64321;48.796;44.740;2023-12-14T20:15:10;21.83;;;2.30;;
75700;SDS011;64321;48.796;44.740;2023-12-14T20:20:15;15.70;;;2.42;;
75700;SDS011;64321;48.796;44.740;2023-12-14T20:30:20;30.50;;;3.95;;
75700;SDS011;64321;48.796;44.740;2023-12-14T20:35:23;20.35;;;4.50;;
75700;SDS011;64321;48.796;44.740;2023-12-14T20:40:26;30.50;;;3.60;;
75700;SDS011;64321;48.796;44.740;2023-12-14T20:45:30;29.88;;;2.15;;
75700;SDS011;64321;48.796;44.740;2023-12-14T20:50:33;25.55;;;2.28;;
75700;SDS011;64321;48.796;44.740;2023-12-14T20:55:36;34.72;;;3.20;;
75700;SDS011;64321;48.796;44.740;2023-12-14T21:00:39;21.90;;;2.05;;
75700;SDS011;64321;48.796;44.740;2023-12-14T21:05:44;33.55;;;2.97;;
75700;SDS011;64321;48.796;44.740;2023-12-14T21:10:50;19.63;;;4.70;;
75700;SDS011;64321;48.796;44.740;2023-12-14T21:15:53;13.00;;;2.17;;
75700;SDS011;64321;48.796;44.740;2023-12-14T21:20:55;23.35;;;2.72;;
75700;SDS011;64321;48.796;44.740;2023-12-14T21:25:58;24.17;;;2.45;;
75700;SDS011;64321;48.796;44.740;2023-12-14T21:31:07;19.40;;;3.58;;
75700;SDS011;64321;48.796;44.740;2023-12-14T21:36:10;10.15;;;2.40;;
75700;SDS011;64321;48.796;44.740;2023-12-14T21:41:12;21.63;;;1.88;;
75700;SDS011;64321;48.796;44.740;2023-12-14T21:46:15;14.65;;;1.63;;
75700;SDS011;64321;48.796;44.740;2023-12-14T21:51:18;26.58;;;2.88;;
75700;SDS011;64321;48.796;44.740;2023-12-14T21:56:21;17.55;;;1.85;;
75700;SDS011;64321;48.796;44.740;2023-12-14T22:01:23;16.45;;;2.35;;
75700;SDS011;64321;48.796;44.740;2023-12-14T22:06:26;19.38;;;3.03;;
75700;SDS011;64321;48.796;44.740;2023-12-14T22:11:28;20.25;;;2.10;;
75700;SDS011;64321;48.796;44.740;2023-12-14T22:16:31;9.75;;;1.55;;
75700;SDS011;64321;48.796;44.740;2023-12-14T22:21:34;36.13;;;4.20;;
75700;SDS011;64321;48.796;44.740;2023-12-14T22:26:37;28.95;;;1.38;;
75700;SDS011;64321;48.796;44.740;2023-12-14T22:31:39;38.08;;;3.25;;
75700;SDS011;64321;48.796;44.740;2023-12-14T22:36:42;19.98;;;1.08;;
75700;SDS011;64321;48.796;44.740;2023-12-14T22:41:45;33.17;;;3.17;;
75700;SDS011;64321;48.796;44.740;2023-12-14T22:46:48;8.10;;;1.63;;
75700;SDS011;64321;48.796;44.740;2023-12-14T22:51:51;23.23;;;3.92;;
75700;SDS011;64321;48.796;44.740;2023-12-14T22:56:54;9.93;;;1.63;;
75700;SDS011;64321;48.796;44.740;2023-12-14T23:01:57;15.95;;;0.88;;
75700;SDS011;64321;48.796;44.740;2023-12-14T23:07:00;25.98;;;2.20;;
75700;SDS011;64321;48.796;44.740;2023-12-14T23:12:04;10.70;;;2.08;;
75700;SDS011;64321;48.796;44.740;2023-12-14T23:17:07;27.33;;;1.65;;
75700;SDS011;64321;48.796;44.740;2023-12-14T23:22:09;18.13;;;2.10;;
75700;SDS011;64321;48.796;44.740;2023-12-14T23:27:12;19.48;;;2.63;;
75700;SDS011;64321;48.796;44.740;2023-12-14T23:32:15;12.35;;;1.85;;
75700;SDS011;64321;48.796;44.740;2023-12-14T23:37:17;31.83;;;3.03;;
75700;SDS011;64321;48.796;44.740;2023-12-14T23:42:21;16.58;;;1.73;;
75700;SDS011;64321;48.796;44.740;2023-12-14T23:47:25;18.95;;;1.17;;
75700;SDS011;64321;48.796;44.740;2023-12-14T23:52:27;33.67;;;2.47;;
75700;SDS011;64321;48.796;44.740;2023-12-14T23:57:30;26.23;;;2.28;;
